Terminal Aerodrome Forecast
Issued by NWS

Home | Current Version | Previous Version | Graphics & Text | Print | Product List | Glossary On
Versions: 1 2 3 4 5 6 7 8 9 10 11 12 13 14 15 16 17 18 19 20 21
232
FTUS43 KTOP 191302 AAA
TAFMHK
TAF AMD
KMHK 191302Z 1913/2012 08006KT P6SM -RA OVC090
      TEMPO 1913/1915 BKN007
     FM191800 14009KT P6SM BKN070
      TEMPO 1921/2001 3SM TS BKN030CB
     FM200100 36008KT P6SM VCSH OVC030
     FM200600 30008KT P6SM OVC010=

USA.gov is the U.S. government's official web portal to all federal, state and local government web resources and services.